»·PEaware :: N416JK KSMF-KFAT

N416JK :: KSMF-KFAT

FLIGHT INFORMATION

Flight Status: Arrived
Operator: Privately registered:
United States
More flights under this callsign
Pilot: John K. (4202)
Aircraft: Unknown
(EPIC)
More flights by this aircraft type
Origin: KSMF Sacramento Intl
United States
Destination: KFAT Fresno Yosemite Intl
United States
More flights between these airports :: More routes between these airports
Route: SAC V23 CZQ
File this flight plan on PilotEdge
Remarks:
Altitude:
(Current/Filed)
5,000ft
Speed:
(Current/Filed)
220kts
Departed: 01-Jul-17 06:35 PM
Arrived: 01-Jul-17 07:16 PM
Distance/Time
Traveled:
145nm/0:40
Distance/Time
To Go:
Arrived

Flight Plot

Page will automatically refresh every two minutes.


Map Options




Map Legend


Flown Route
Filed Route
Departure Airport
Arrival Airport
Navaid (VOR, NDB)
Fix

Horizontal Profiles

Position Reports

Time Latitude Longitude Heading Altitude Ground
Speed
01-Jul-17 18:25 38.680329 -121.597523 352 31ft 0kts
01-Jul-17 18:26 38.680329 -121.597523 352 31ft 0kts
01-Jul-17 18:27 38.680329 -121.597523 352 31ft 0kts
01-Jul-17 18:28 38.680329 -121.597523 352 31ft 0kts
01-Jul-17 18:29 38.680329 -121.597523 352 31ft 0kts
01-Jul-17 18:30 38.680329 -121.597523 352 31ft 0kts
01-Jul-17 18:31 38.680329 -121.597523 352 31ft 0kts
01-Jul-17 18:32 38.680329 -121.597523 352 31ft 0kts
01-Jul-17 18:33 38.682502 -121.598908 355 31ft 22kts
01-Jul-17 18:34 38.689691 -121.598802 1 31ft 27kts
01-Jul-17 18:35 38.696618 -121.598631 359 31ft 15kts
01-Jul-17 18:36 38.697051 -121.599734 267 31ft 0kts
01-Jul-17 18:37 38.697051 -121.599734 267 31ft 0kts
01-Jul-17 18:38 38.691113 -121.601291 180 35ft 125kts
01-Jul-17 18:39 38.646904 -121.566907 133 1169ft 262kts
01-Jul-17 18:40 38.593948 -121.493417 133 2416ft 289kts
01-Jul-17 18:41 38.525767 -121.493964 206 3927ft 284kts
01-Jul-17 18:42 38.454764 -121.536685 178 5012ft 294kts
01-Jul-17 18:43 38.392383 -121.473158 131 5364ft 306kts
01-Jul-17 18:44 38.334275 -121.388020 130 4703ft 314kts
01-Jul-17 18:45 38.277288 -121.303601 131 4284ft 332kts
01-Jul-17 18:46 38.221057 -121.221380 131 4913ft 310kts
01-Jul-17 18:47 38.172725 -121.151442 127 4939ft 197kts
01-Jul-17 18:48 38.143805 -121.106911 128 5051ft 156kts
01-Jul-17 18:49 38.113406 -121.061463 128 5059ft 178kts
01-Jul-17 18:50 38.078122 -121.009259 128 5075ft 238kts
01-Jul-17 18:51 38.019946 -120.948205 143 5065ft 291kts
01-Jul-17 18:52 37.966082 -120.893658 142 5055ft 302kts
01-Jul-17 18:53 37.902751 -120.828848 143 5049ft 271kts
01-Jul-17 18:54 37.846151 -120.771522 143 5047ft 254kts
01-Jul-17 18:55 37.783066 -120.707858 143 5035ft 245kts
01-Jul-17 18:56 37.730183 -120.654591 143 5026ft 241kts
01-Jul-17 18:57 37.677978 -120.602069 143 5027ft 240kts
01-Jul-17 18:58 37.634634 -120.558528 143 5027ft 239kts
01-Jul-17 18:59 37.581295 -120.505392 139 5030ft 254kts
01-Jul-17 19:00 37.524655 -120.448499 139 5028ft 264kts
01-Jul-17 19:01 37.466644 -120.390485 143 5025ft 268kts
01-Jul-17 19:02 37.408455 -120.332558 143 5022ft 268kts
01-Jul-17 19:03 37.349959 -120.274327 143 5019ft 268kts
01-Jul-17 19:04 37.291595 -120.216424 143 5019ft 267kts
01-Jul-17 19:05 37.233222 -120.158651 143 5023ft 267kts
01-Jul-17 19:06 37.174818 -120.100941 144 5026ft 267kts
01-Jul-17 19:07 37.120034 -120.046858 144 5025ft 232kts
01-Jul-17 19:08 37.071680 -119.999234 144 5026ft 211kts
01-Jul-17 19:09 37.030248 -119.958532 144 5025ft 203kts
01-Jul-17 19:10 36.986270 -119.915367 143 5022ft 199kts
01-Jul-17 19:11 36.943071 -119.872690 143 4445ft 196kts
01-Jul-17 19:12 36.902539 -119.832777 143 3620ft 168kts
01-Jul-17 19:13 36.868936 -119.801121 146 2780ft 135kts
01-Jul-17 19:14 36.836946 -119.780573 178 2162ft 141kts
01-Jul-17 19:15 36.783678 -119.774286 165 1744ft 214kts
01-Jul-17 19:16 36.742468 -119.719784 129 1018ft 209kts
01-Jul-17 19:17 36.741096 -119.678788 3 1177ft 123kts
01-Jul-17 19:18 36.766117 -119.702829 306 547ft 97kts
01-Jul-17 19:19 36.772004 -119.716740 291 339ft 17kts
01-Jul-17 19:20 36.773956 -119.721730 264 339ft 15kts
01-Jul-17 19:21 36.774181 -119.722359 302 339ft 0kts

Navigation Log

Ident Type
Flight plan parsing failed, navigation log unavailable